sensor_id;sensor_type;location;lat;lon;timestamp;pressure;altitude;pressure_sealevel;temperature;humidity
21129;BME280;10722;51.910;8.352;2023-02-19T00:02:32;100863.44;;;8.43;100.00
21129;BME280;10722;51.910;8.352;2023-02-19T00:05:17;100863.53;;;8.46;100.00
21129;BME280;10722;51.910;8.352;2023-02-19T00:08:01;100858.63;;;8.56;100.00
21129;BME280;10722;51.910;8.352;2023-02-19T00:10:46;100870.88;;;8.63;100.00
21129;BME280;10722;51.910;8.352;2023-02-19T00:13:43;100859.09;;;8.72;100.00
21129;BME280;10722;51.910;8.352;2023-02-19T00:16:34;100861.56;;;8.68;100.00
21129;BME280;10722;51.910;8.352;2023-02-19T00:19:20;100862.03;;;8.55;100.00
21129;BME280;10722;51.910;8.352;2023-02-19T00:22:05;100862.03;;;8.55;100.00
21129;BME280;10722;51.910;8.352;2023-02-19T00:24:51;100856.88;;;8.55;100.00
21129;BME280;10722;51.910;8.352;2023-02-19T00:27:36;100856.34;;;8.66;100.00
21129;BME280;10722;51.910;8.352;2023-02-19T00:30:22;100853.28;;;8.80;100.00
21129;BME280;10722;51.910;8.352;2023-02-19T00:33:07;100851.63;;;8.83;100.00
21129;BME280;10722;51.910;8.352;2023-02-19T00:35:52;100832.72;;;8.83;100.00
21129;BME280;10722;51.910;8.352;2023-02-19T00:38:39;100827.09;;;8.66;100.00
21129;BME280;10722;51.910;8.352;2023-02-19T00:41:25;100834.84;;;8.66;100.00
21129;BME280;10722;51.910;8.352;2023-02-19T00:44:11;100825.53;;;8.71;100.00
21129;BME280;10722;51.910;8.352;2023-02-19T00:46:57;100835.06;;;8.75;100.00
21129;BME280;10722;51.910;8.352;2023-02-19T00:49:42;100831.84;;;8.82;100.00
21129;BME280;10722;51.910;8.352;2023-02-19T00:52:27;100844.81;;;8.85;100.00
21129;BME280;10722;51.910;8.352;2023-02-19T00:55:12;100843.19;;;8.89;100.00
21129;BME280;10722;51.910;8.352;2023-02-19T00:57:58;100831.22;;;8.92;100.00
21129;BME280;10722;51.910;8.352;2023-02-19T01:00:43;100837.31;;;8.94;100.00
21129;BME280;10722;51.910;8.352;2023-02-19T01:03:28;100851.06;;;8.95;100.00
21129;BME280;10722;51.910;8.352;2023-02-19T01:06:16;100841.66;;;8.95;100.00
21129;BME280;10722;51.910;8.352;2023-02-19T01:09:03;100834.00;;;9.00;100.00
21129;BME280;10722;51.910;8.352;2023-02-19T01:11:48;100840.03;;;9.01;100.00
21129;BME280;10722;51.910;8.352;2023-02-19T01:14:34;100841.91;;;9.06;100.00
21129;BME280;10722;51.910;8.352;2023-02-19T01:17:20;100844.47;;;9.05;100.00
21129;BME280;10722;51.910;8.352;2023-02-19T01:20:05;100835.94;;;9.07;100.00
21129;BME280;10722;51.910;8.352;2023-02-19T01:22:50;100830.00;;;9.11;100.00
21129;BME280;10722;51.910;8.352;2023-02-19T01:25:38;100838.66;;;9.13;100.00
21129;BME280;10722;51.910;8.352;2023-02-19T01:28:23;100839.44;;;9.11;100.00
21129;BME280;10722;51.910;8.352;2023-02-19T01:31:11;100841.19;;;9.12;100.00
21129;BME280;10722;51.910;8.352;2023-02-19T01:33:59;100831.84;;;9.15;100.00
21129;BME280;10722;51.910;8.352;2023-02-19T01:36:45;100833.63;;;9.18;100.00
21129;BME280;10722;51.910;8.352;2023-02-19T01:39:30;100824.03;;;9.14;100.00
21129;BME280;10722;51.910;8.352;2023-02-19T01:42:16;100836.22;;;9.18;100.00
21129;BME280;10722;51.910;8.352;2023-02-19T01:48:11;100825.94;;;9.21;100.00
21129;BME280;10722;51.910;8.352;2023-02-19T01:51:04;100832.78;;;9.20;100.00
21129;BME280;10722;51.910;8.352;2023-02-19T01:53:54;100838.88;;;9.21;100.00
21129;BME280;10722;51.910;8.352;2023-02-19T01:56:42;100838.13;;;9.27;100.00
21129;BME280;10722;51.910;8.352;2023-02-19T01:59:28;100832.00;;;9.23;100.00
21129;BME280;10722;51.910;8.352;2023-02-19T02:02:13;100832.91;;;9.25;100.00
21129;BME280;10722;51.910;8.352;2023-02-19T02:04:59;100826.03;;;9.26;100.00
21129;BME280;10722;51.910;8.352;2023-02-19T02:07:45;100825.06;;;9.20;100.00
21129;BME280;10722;51.910;8.352;2023-02-19T02:10:30;100818.94;;;9.17;100.00
21129;BME280;10722;51.910;8.352;2023-02-19T02:13:16;100830.28;;;9.22;100.00
21129;BME280;10722;51.910;8.352;2023-02-19T02:16:09;100820.94;;;9.27;100.00
21129;BME280;10722;51.910;8.352;2023-02-19T02:19:00;100820.09;;;9.28;100.00
21129;BME280;10722;51.910;8.352;2023-02-19T02:30:37;100805.47;;;9.29;100.00
21129;BME280;10722;51.910;8.352;2023-02-19T02:33:31;100799.44;;;9.28;100.00
21129;BME280;10722;51.910;8.352;2023-02-19T02:36:29;100800.13;;;9.21;100.00
21129;BME280;10722;51.910;8.352;2023-02-19T02:39:18;100813.06;;;9.23;100.00
21129;BME280;10722;51.910;8.352;2023-02-19T02:42:04;100801.81;;;9.20;100.00
21129;BME280;10722;51.910;8.352;2023-02-19T02:44:50;100806.88;;;9.16;100.00
21129;BME280;10722;51.910;8.352;2023-02-19T02:47:55;100807.72;;;9.15;100.00
21129;BME280;10722;51.910;8.352;2023-02-19T02:56:35;100806.91;;;9.17;100.00
21129;BME280;10722;51.910;8.352;2023-02-19T02:59:22;100801.66;;;9.13;100.00
21129;BME280;10722;51.910;8.352;2023-02-19T03:02:13;100802.41;;;9.09;100.00
21129;BME280;10722;51.910;8.352;2023-02-19T03:05:10;100799.88;;;9.10;100.00
21129;BME280;10722;51.910;8.352;2023-02-19T03:08:37;100804.13;;;9.08;100.00
21129;BME280;10722;51.910;8.352;2023-02-19T03:11:24;100802.47;;;9.12;100.00
21129;BME280;10722;51.910;8.352;2023-02-19T03:14:16;100804.00;;;9.04;100.00
21129;BME280;10722;51.910;8.352;2023-02-19T03:17:10;100800.66;;;9.08;100.00
21129;BME280;10722;51.910;8.352;2023-02-19T03:20:00;100797.06;;;9.01;100.00
21129;BME280;10722;51.910;8.352;2023-02-19T03:22:48;100797.16;;;9.04;100.00
21129;BME280;10722;51.910;8.352;2023-02-19T03:25:36;100803.81;;;8.96;100.00
21129;BME280;10722;51.910;8.352;2023-02-19T03:28:23;100804.84;;;9.03;100.00
21129;BME280;10722;51.910;8.352;2023-02-19T03:31:14;100808.25;;;9.02;100.00
21129;BME280;10722;51.910;8.352;2023-02-19T03:34:04;100813.34;;;8.98;100.00
21129;BME280;10722;51.910;8.352;2023-02-19T03:37:09;100810.75;;;8.98;100.00
21129;BME280;10722;51.910;8.352;2023-02-19T03:39:57;100815.00;;;8.96;100.00
21129;BME280;10722;51.910;8.352;2023-02-19T03:45:44;100824.47;;;8.96;100.00
21129;BME280;10722;51.910;8.352;2023-02-19T03:48:34;100825.19;;;8.90;100.00
21129;BME280;10722;51.910;8.352;2023-02-19T03:54:19;100837.38;;;8.97;100.00
21129;BME280;10722;51.910;8.352;2023-02-19T04:03:34;100845.06;;;8.94;100.00
21129;BME280;10722;51.910;8.352;2023-02-19T04:06:26;100861.53;;;9.00;100.00
21129;BME280;10722;51.910;8.352;2023-02-19T04:09:13;100855.59;;;9.02;100.00
21129;BME280;10722;51.910;8.352;2023-02-19T04:12:00;100866.47;;;8.90;100.00
21129;BME280;10722;51.910;8.352;2023-02-19T04:17:36;100860.44;;;8.90;100.00
21129;BME280;10722;51.910;8.352;2023-02-19T04:20:26;100868.13;;;8.88;100.00
21129;BME280;10722;51.910;8.352;2023-02-19T04:23:16;100867.31;;;8.91;100.00
21129;BME280;10722;51.910;8.352;2023-02-19T04:26:05;100872.34;;;8.86;100.00
21129;BME280;10722;51.910;8.352;2023-02-19T04:28:50;100873.06;;;8.81;100.00
21129;BME280;10722;51.910;8.352;2023-02-19T04:31:36;100873.28;;;8.88;100.00
21129;BME280;10722;51.910;8.352;2023-02-19T04:34:22;100882.66;;;8.85;100.00
21129;BME280;10722;51.910;8.352;2023-02-19T04:37:07;100878.34;;;8.85;100.00
21129;BME280;10722;51.910;8.352;2023-02-19T04:39:52;100880.84;;;8.82;100.00
21129;BME280;10722;51.910;8.352;2023-02-19T04:42:37;100878.28;;;8.82;100.00
21129;BME280;10722;51.910;8.352;2023-02-19T04:45:22;100889.31;;;8.77;100.00
21129;BME280;10722;51.910;8.352;2023-02-19T04:48:07;100893.59;;;8.76;100.00
21129;BME280;10722;51.910;8.352;2023-02-19T04:50:55;100890.34;;;8.83;100.00
21129;BME280;10722;51.910;8.352;2023-02-19T04:53:41;100892.09;;;8.84;100.00
21129;BME280;10722;51.910;8.352;2023-02-19T04:56:26;100905.88;;;8.85;100.00
21129;BME280;10722;51.910;8.352;2023-02-19T04:59:11;100901.41;;;8.79;100.00
21129;BME280;10722;51.910;8.352;2023-02-19T05:01:57;100902.28;;;8.80;100.00
21129;BME280;10722;51.910;8.352;2023-02-19T05:04:41;100902.50;;;8.87;100.00
21129;BME280;10722;51.910;8.352;2023-02-19T05:07:27;100904.00;;;8.79;100.00
21129;BME280;10722;51.910;8.352;2023-02-19T05:10:12;100921.91;;;8.74;100.00
21129;BME280;10722;51.910;8.352;2023-02-19T05:12:56;100914.25;;;8.78;100.00
21129;BME280;10722;51.910;8.352;2023-02-19T05:15:59;100911.72;;;8.79;100.00
21129;BME280;10722;51.910;8.352;2023-02-19T05:18:45;100919.47;;;8.79;100.00
21129;BME280;10722;51.910;8.352;2023-02-19T05:21:30;100914.34;;;8.81;100.00
21129;BME280;10722;51.910;8.352;2023-02-19T05:24:16;100918.50;;;8.75;100.00
21129;BME280;10722;51.910;8.352;2023-02-19T05:27:01;100917.00;;;8.84;100.00
21129;BME280;10722;51.910;8.352;2023-02-19T05:29:46;100925.66;;;8.84;100.00
21129;BME280;10722;51.910;8.352;2023-02-19T05:32:33;100918.06;;;8.90;100.00
21129;BME280;10722;51.910;8.352;2023-02-19T05:35:18;100925.66;;;8.86;100.00
21129;BME280;10722;51.910;8.352;2023-02-19T05:38:03;100935.97;;;8.84;100.00
21129;BME280;10722;51.910;8.352;2023-02-19T05:40:48;100936.69;;;8.80;100.00
21129;BME280;10722;51.910;8.352;2023-02-19T05:43:33;100936.59;;;8.77;100.00
21129;BME280;10722;51.910;8.352;2023-02-19T05:46:21;100951.16;;;8.75;100.00
21129;BME280;10722;51.910;8.352;2023-02-19T05:49:06;100941.63;;;8.72;100.00
21129;BME280;10722;51.910;8.352;2023-02-19T05:51:51;100946.69;;;8.69;100.00
21129;BME280;10722;51.910;8.352;2023-02-19T05:54:37;100954.13;;;8.59;100.00
21129;BME280;10722;51.910;8.352;2023-02-19T05:57:22;100955.22;;;8.67;100.00
21129;BME280;10722;51.910;8.352;2023-02-19T06:00:16;100959.59;;;8.69;100.00
21129;BME280;10722;51.910;8.352;2023-02-19T06:03:01;100966.38;;;8.66;100.00
21129;BME280;10722;51.910;8.352;2023-02-19T06:05:47;100966.22;;;8.60;100.00
21129;BME280;10722;51.910;8.352;2023-02-19T06:08:32;100972.38;;;8.65;100.00
21129;BME280;10722;51.910;8.352;2023-02-19T06:11:18;100978.22;;;8.59;100.00
21129;BME280;10722;51.910;8.352;2023-02-19T06:14:05;100983.41;;;8.61;100.00
21129;BME280;10722;51.910;8.352;2023-02-19T06:16:50;100982.59;;;8.62;100.00
21129;BME280;10722;51.910;8.352;2023-02-19T06:19:35;100992.94;;;8.62;100.00
21129;BME280;10722;51.910;8.352;2023-02-19T06:22:21;100987.88;;;8.66;100.00
21129;BME280;10722;51.910;8.352;2023-02-19T06:25:06;100991.84;;;8.55;100.00
21129;BME280;10722;51.910;8.352;2023-02-19T06:27:51;100997.66;;;8.48;100.00
21129;BME280;10722;51.910;8.352;2023-02-19T06:30:36;101001.28;;;8.55;100.00
21129;BME280;10722;51.910;8.352;2023-02-19T06:33:21;101002.25;;;8.58;100.00
21129;BME280;10722;51.910;8.352;2023-02-19T06:36:13;101004.72;;;8.53;100.00
21129;BME280;10722;51.910;8.352;2023-02-19T06:38:59;101008.75;;;8.45;100.00
21129;BME280;10722;51.910;8.352;2023-02-19T06:41:45;101004.63;;;8.50;100.00
21129;BME280;10722;51.910;8.352;2023-02-19T06:44:30;101012.47;;;8.55;100.00
21129;BME280;10722;51.910;8.352;2023-02-19T06:47:15;101019.50;;;8.59;100.00
21129;BME280;10722;51.910;8.352;2023-02-19T06:50:00;101018.59;;;8.59;100.00
21129;BME280;10722;51.910;8.352;2023-02-19T06:52:46;101022.84;;;8.57;100.00
21129;BME280;10722;51.910;8.352;2023-02-19T06:55:30;101027.75;;;8.49;100.00
21129;BME280;10722;51.910;8.352;2023-02-19T06:58:16;101036.56;;;8.56;100.00
21129;BME280;10722;51.910;8.352;2023-02-19T07:01:01;101036.63;;;8.57;100.00
21129;BME280;10722;51.910;8.352;2023-02-19T07:03:46;101045.19;;;8.56;100.00
21129;BME280;10722;51.910;8.352;2023-02-19T07:06:32;101054.41;;;8.49;100.00
21129;BME280;10722;51.910;8.352;2023-02-19T07:09:18;101057.00;;;8.49;100.00
21129;BME280;10722;51.910;8.352;2023-02-19T07:12:03;101067.50;;;8.56;100.00
21129;BME280;10722;51.910;8.352;2023-02-19T07:14:49;101068.69;;;8.65;100.00
21129;BME280;10722;51.910;8.352;2023-02-19T07:17:35;101080.47;;;8.57;100.00
21129;BME280;10722;51.910;8.352;2023-02-19T07:20:20;101080.41;;;8.56;100.00
21129;BME280;10722;51.910;8.352;2023-02-19T07:23:05;101085.56;;;8.56;100.00
21129;BME280;10722;51.910;8.352;2023-02-19T07:25:50;101090.97;;;8.63;100.00
21129;BME280;10722;51.910;8.352;2023-02-19T07:28:36;101125.84;;;8.52;100.00
21129;BME280;10722;51.910;8.352;2023-02-19T07:31:22;101136.06;;;7.74;100.00
21129;BME280;10722;51.910;8.352;2023-02-19T07:34:08;101138.47;;;7.45;100.00
21129;BME280;10722;51.910;8.352;2023-02-19T07:36:53;101142.69;;;7.21;100.00
21129;BME280;10722;51.910;8.352;2023-02-19T07:39:38;101166.19;;;6.85;100.00
21129;BME280;10722;51.910;8.352;2023-02-19T07:42:23;101172.75;;;6.78;100.00
21129;BME280;10722;51.910;8.352;2023-02-19T07:45:08;101177.88;;;6.77;100.00
21129;BME280;10722;51.910;8.352;2023-02-19T07:47:54;101191.28;;;6.48;100.00
21129;BME280;10722;51.910;8.352;2023-02-19T07:50:39;101198.56;;;6.18;100.00
21129;BME280;10722;51.910;8.352;2023-02-19T07:53:25;101207.38;;;6.23;100.00
21129;BME280;10722;51.910;8.352;2023-02-19T07:56:11;101210.81;;;6.24;100.00
21129;BME280;10722;51.910;8.352;2023-02-19T07:58:56;101212.50;;;6.04;100.00
21129;BME280;10722;51.910;8.352;2023-02-19T08:01:44;101220.63;;;6.13;100.00
21129;BME280;10722;51.910;8.352;2023-02-19T08:04:30;101220.63;;;6.13;100.00
21129;BME280;10722;51.910;8.352;2023-02-19T08:07:15;101224.34;;;6.20;100.00
21129;BME280;10722;51.910;8.352;2023-02-19T08:10:02;101236.88;;;6.33;100.00
21129;BME280;10722;51.910;8.352;2023-02-19T08:12:56;101248.72;;;6.29;100.00
21129;BME280;10722;51.910;8.352;2023-02-19T08:15:41;101241.25;;;6.15;100.00
21129;BME280;10722;51.910;8.352;2023-02-19T08:18:28;101257.25;;;6.28;100.00
21129;BME280;10722;51.910;8.352;2023-02-19T08:21:14;101257.66;;;6.18;100.00
21129;BME280;10722;51.910;8.352;2023-02-19T08:24:00;101257.63;;;6.17;100.00
21129;BME280;10722;51.910;8.352;2023-02-19T08:26:45;101250.53;;;6.11;100.00
21129;BME280;10722;51.910;8.352;2023-02-19T08:29:30;101254.09;;;6.15;100.00
21129;BME280;10722;51.910;8.352;2023-02-19T08:32:15;101263.03;;;6.23;100.00
21129;BME280;10722;51.910;8.352;2023-02-19T08:35:00;101255.81;;;6.35;100.00
21129;BME280;10722;51.910;8.352;2023-02-19T08:37:46;101263.06;;;6.44;100.00
21129;BME280;10722;51.910;8.352;2023-02-19T08:40:32;101264.53;;;6.39;100.00
21129;BME280;10722;51.910;8.352;2023-02-19T08:43:17;101271.63;;;6.44;100.00
21129;BME280;10722;51.910;8.352;2023-02-19T08:46:03;101258.75;;;6.43;100.00
21129;BME280;10722;51.910;8.352;2023-02-19T08:48:49;101260.56;;;6.45;100.00
21129;BME280;10722;51.910;8.352;2023-02-19T08:51:34;101273.06;;;6.57;100.00
21129;BME280;10722;51.910;8.352;2023-02-19T08:54:20;101283.72;;;6.66;100.00
21129;BME280;10722;51.910;8.352;2023-02-19T08:57:04;101283.06;;;6.70;100.00
21129;BME280;10722;51.910;8.352;2023-02-19T08:59:50;101289.94;;;6.71;100.00
21129;BME280;10722;51.910;8.352;2023-02-19T09:02:35;101296.94;;;6.76;100.00
21129;BME280;10722;51.910;8.352;2023-02-19T09:05:20;101304.25;;;6.65;100.00
21129;BME280;10722;51.910;8.352;2023-02-19T09:08:06;101295.56;;;6.63;100.00
21129;BME280;10722;51.910;8.352;2023-02-19T09:10:59;101298.81;;;6.59;100.00
21129;BME280;10722;51.910;8.352;2023-02-19T09:13:45;101310.19;;;6.64;100.00
21129;BME280;10722;51.910;8.352;2023-02-19T09:16:30;101322.84;;;6.59;100.00
21129;BME280;10722;51.910;8.352;2023-02-19T09:19:16;101322.28;;;6.66;100.00
21129;BME280;10722;51.910;8.352;2023-02-19T09:22:01;101319.66;;;6.65;100.00
21129;BME280;10722;51.910;8.352;2023-02-19T09:24:47;101336.69;;;6.82;100.00
21129;BME280;10722;51.910;8.352;2023-02-19T09:27:32;101342.22;;;6.91;100.00
21129;BME280;10722;51.910;8.352;2023-02-19T09:30:18;101348.09;;;6.89;100.00
21129;BME280;10722;51.910;8.352;2023-02-19T09:33:04;101355.47;;;6.81;100.00
21129;BME280;10722;51.910;8.352;2023-02-19T09:35:50;101361.53;;;6.82;100.00
21129;BME280;10722;51.910;8.352;2023-02-19T09:38:35;101362.91;;;6.73;100.00
21129;BME280;10722;51.910;8.352;2023-02-19T09:41:27;101372.63;;;6.81;100.00
21129;BME280;10722;51.910;8.352;2023-02-19T09:44:29;101376.78;;;6.98;100.00
21129;BME280;10722;51.910;8.352;2023-02-19T09:47:20;101380.75;;;6.90;100.00
21129;BME280;10722;51.910;8.352;2023-02-19T09:50:08;101382.97;;;7.02;100.00
21129;BME280;10722;51.910;8.352;2023-02-19T09:52:57;101393.44;;;6.87;100.00
21129;BME280;10722;51.910;8.352;2023-02-19T09:55:44;101405.78;;;6.74;100.00
21129;BME280;10722;51.910;8.352;2023-02-19T09:58:33;101418.38;;;6.88;100.00
21129;BME280;10722;51.910;8.352;2023-02-19T10:01:19;101423.66;;;6.71;100.00
21129;BME280;10722;51.910;8.352;2023-02-19T10:04:05;101431.97;;;6.46;100.00
21129;BME280;10722;51.910;8.352;2023-02-19T10:06:51;101438.06;;;6.31;100.00
21129;BME280;10722;51.910;8.352;2023-02-19T10:09:37;101447.16;;;6.22;100.00
21129;BME280;10722;51.910;8.352;2023-02-19T10:12:29;101458.94;;;6.19;100.00
21129;BME280;10722;51.910;8.352;2023-02-19T10:15:22;101466.19;;;6.27;100.00
21129;BME280;10722;51.910;8.352;2023-02-19T10:18:09;101467.47;;;6.18;100.00
21129;BME280;10722;51.910;8.352;2023-02-19T10:20:55;101482.06;;;6.37;100.00
21129;BME280;10722;51.910;8.352;2023-02-19T10:23:41;101488.00;;;6.36;100.00
21129;BME280;10722;51.910;8.352;2023-02-19T10:26:27;101485.94;;;6.46;100.00
21129;BME280;10722;51.910;8.352;2023-02-19T10:29:12;101490.22;;;6.46;100.00
21129;BME280;10722;51.910;8.352;2023-02-19T10:35:13;101489.38;;;6.47;100.00
21129;BME280;10722;51.910;8.352;2023-02-19T10:38:00;101500.41;;;6.62;100.00
21129;BME280;10722;51.910;8.352;2023-02-19T10:40:46;101510.94;;;6.68;100.00
21129;BME280;10722;51.910;8.352;2023-02-19T10:43:35;101508.63;;;6.55;100.00
21129;BME280;10722;51.910;8.352;2023-02-19T10:46:23;101505.31;;;6.58;100.00
21129;BME280;10722;51.910;8.352;2023-02-19T10:49:31;101492.00;;;6.66;100.00
21129;BME280;10722;51.910;8.352;2023-02-19T10:52:25;101477.28;;;6.44;100.00
21129;BME280;10722;51.910;8.352;2023-02-19T10:55:38;101486.50;;;6.78;100.00
21129;BME280;10722;51.910;8.352;2023-02-19T10:58:25;101492.16;;;6.89;100.00
21129;BME280;10722;51.910;8.352;2023-02-19T11:01:17;101484.63;;;6.74;100.00
21129;BME280;10722;51.910;8.352;2023-02-19T11:04:17;101479.09;;;6.84;100.00
21129;BME280;10722;51.910;8.352;2023-02-19T11:07:09;101481.13;;;7.11;100.00
21129;BME280;10722;51.910;8.352;2023-02-19T11:09:56;101481.94;;;7.29;100.00
21129;BME280;10722;51.910;8.352;2023-02-19T11:12:46;101486.84;;;7.44;100.00
21129;BME280;10722;51.910;8.352;2023-02-19T11:15:34;101485.72;;;7.58;100.00
21129;BME280;10722;51.910;8.352;2023-02-19T11:18:28;101483.59;;;7.69;100.00
21129;BME280;10722;51.910;8.352;2023-02-19T11:21:24;101487.59;;;7.62;100.00
21129;BME280;10722;51.910;8.352;2023-02-19T11:24:24;101480.13;;;7.48;100.00
21129;BME280;10722;51.910;8.352;2023-02-19T11:27:17;101478.50;;;7.50;100.00
21129;BME280;10722;51.910;8.352;2023-02-19T11:39:27;101460.03;;;7.19;100.00
21129;BME280;10722;51.910;8.352;2023-02-19T11:48:46;101451.63;;;8.75;100.00
21129;BME280;10722;51.910;8.352;2023-02-19T11:54:43;101344.53;;;8.86;100.00
21129;BME280;10722;51.910;8.352;2023-02-19T11:57:37;101343.28;;;9.01;100.00
21129;BME280;10722;51.910;8.352;2023-02-19T12:00:40;101298.13;;;8.62;97.29
21129;BME280;10722;51.910;8.352;2023-02-19T12:13:49;101258.34;;;8.81;92.34
21129;BME280;10722;51.910;8.352;2023-02-19T12:16:42;101248.66;;;8.48;91.83
21129;BME280;10722;51.910;8.352;2023-02-19T12:29:43;101277.50;;;8.88;90.90
21129;BME280;10722;51.910;8.352;2023-02-19T12:35:09;101255.66;;;8.52;89.54
21129;BME280;10722;51.910;8.352;2023-02-19T12:39:11;101293.09;;;8.41;90.41
21129;BME280;10722;51.910;8.352;2023-02-19T12:41:34;101293.31;;;8.47;90.06
21129;BME280;10722;51.910;8.352;2023-02-19T12:44:27;101302.06;;;8.77;89.70
21129;BME280;10722;51.910;8.352;2023-02-19T12:47:24;101299.97;;;8.90;89.61
21129;BME280;10722;51.910;8.352;2023-02-19T12:50:20;101292.44;;;8.98;88.43
21129;BME280;10722;51.910;8.352;2023-02-19T12:56:20;101276.97;;;9.25;86.81
21129;BME280;10722;51.910;8.352;2023-02-19T12:59:23;101257.53;;;8.82;86.24
21129;BME280;10722;51.910;8.352;2023-02-19T13:02:21;101321.19;;;9.09;87.71
21129;BME280;10722;51.910;8.352;2023-02-19T13:08:40;101301.28;;;9.59;86.50
21129;BME280;10722;51.910;8.352;2023-02-19T13:11:55;101279.06;;;9.64;85.58
21129;BME280;10722;51.910;8.352;2023-02-19T13:14:45;101279.09;;;9.94;84.91
21129;BME280;10722;51.910;8.352;2023-02-19T13:17:40;101233.50;;;9.98;82.99
21129;BME280;10722;51.910;8.352;2023-02-19T13:20:31;101219.50;;;9.31;83.12
21129;BME280;10722;51.910;8.352;2023-02-19T13:23:32;101256.91;;;9.43;84.22
21129;BME280;10722;51.910;8.352;2023-02-19T13:36:00;101286.97;;;9.41;84.19
21129;BME280;10722;51.910;8.352;2023-02-19T13:38:48;101283.47;;;9.39;84.07
21129;BME280;10722;51.910;8.352;2023-02-19T13:44:27;101308.66;;;9.19;84.30
21129;BME280;10722;51.910;8.352;2023-02-19T13:47:49;101282.41;;;8.80;83.72
21129;BME280;10722;51.910;8.352;2023-02-19T13:50:42;101327.19;;;9.08;84.62
21129;BME280;10722;51.910;8.352;2023-02-19T13:59:33;101317.53;;;9.28;84.01
21129;BME280;10722;51.910;8.352;2023-02-19T14:05:10;101298.66;;;9.30;83.30
21129;BME280;10722;51.910;8.352;2023-02-19T14:07:56;101268.81;;;9.38;81.89
21129;BME280;10722;51.910;8.352;2023-02-19T14:10:55;101292.03;;;9.38;82.63
21129;BME280;10722;51.910;8.352;2023-02-19T14:25:50;101332.50;;;8.87;83.13
21129;BME280;10722;51.910;8.352;2023-02-19T14:28:42;101398.53;;;9.06;84.48
21129;BME280;10722;51.910;8.352;2023-02-19T14:31:46;101390.28;;;9.16;84.11
21129;BME280;10722;51.910;8.352;2023-02-19T14:34:32;101341.13;;;9.13;81.86
21129;BME280;10722;51.910;8.352;2023-02-19T14:37:21;101337.78;;;8.90;82.14
21129;BME280;10722;51.910;8.352;2023-02-19T14:40:10;101395.91;;;9.04;83.86
21129;BME280;10722;51.910;8.352;2023-02-19T14:43:01;101417.75;;;9.14;84.81
21129;BME280;10722;51.910;8.352;2023-02-19T14:45:54;101427.78;;;9.30;84.77
21129;BME280;10722;51.910;8.352;2023-02-19T14:48:44;101413.94;;;9.28;83.83
21129;BME280;10722;51.910;8.352;2023-02-19T14:52:01;101385.06;;;9.14;82.86
21129;BME280;10722;51.910;8.352;2023-02-19T14:55:00;101334.75;;;9.02;81.72
21129;BME280;10722;51.910;8.352;2023-02-19T14:57:49;101347.41;;;8.70;82.58
21129;BME280;10722;51.910;8.352;2023-02-19T15:00:40;101394.69;;;8.94;84.09
21129;BME280;10722;51.910;8.352;2023-02-19T15:03:31;101384.59;;;9.01;83.98
21129;BME280;10722;51.910;8.352;2023-02-19T15:06:17;101378.72;;;8.81;83.94
21129;BME280;10722;51.910;8.352;2023-02-19T15:09:04;101369.94;;;8.75;83.59
21129;BME280;10722;51.910;8.352;2023-02-19T15:11:52;101362.00;;;8.69;83.39
21129;BME280;10722;51.910;8.352;2023-02-19T15:14:38;101347.56;;;8.04;83.90
21129;BME280;10722;51.910;8.352;2023-02-19T15:17:28;101345.63;;;7.98;83.61
21129;BME280;10722;51.910;8.352;2023-02-19T15:20:17;101377.78;;;7.85;85.08
21129;BME280;10722;51.910;8.352;2023-02-19T15:23:05;101399.09;;;8.04;85.56
21129;BME280;10722;51.910;8.352;2023-02-19T15:25:51;101394.25;;;8.12;85.31
21129;BME280;10722;51.910;8.352;2023-02-19T15:28:37;101384.22;;;7.74;85.77
21129;BME280;10722;51.910;8.352;2023-02-19T15:31:22;101403.16;;;7.76;86.37
21129;BME280;10722;51.910;8.352;2023-02-19T15:34:18;101424.97;;;7.84;87.25
21129;BME280;10722;51.910;8.352;2023-02-19T15:37:05;101451.50;;;8.04;88.31
21129;BME280;10722;51.910;8.352;2023-02-19T15:39:52;101463.94;;;8.15;89.03
21129;BME280;10722;51.910;8.352;2023-02-19T15:42:38;101438.78;;;7.86;88.23
21129;BME280;10722;51.910;8.352;2023-02-19T15:45:39;101450.56;;;7.80;88.90
21129;BME280;10722;51.910;8.352;2023-02-19T15:48:30;101454.28;;;7.88;89.44
21129;BME280;10722;51.910;8.352;2023-02-19T15:51:26;101469.00;;;8.12;89.84
21129;BME280;10722;51.910;8.352;2023-02-19T15:54:36;101466.66;;;8.18;89.37
21129;BME280;10722;51.910;8.352;2023-02-19T15:57:27;101457.00;;;8.14;88.69
21129;BME280;10722;51.910;8.352;2023-02-19T16:00:20;101454.16;;;8.06;88.77
21129;BME280;10722;51.910;8.352;2023-02-19T16:03:14;101456.03;;;8.10;88.30
21129;BME280;10722;51.910;8.352;2023-02-19T16:06:07;101482.88;;;8.15;89.64
21129;BME280;10722;51.910;8.352;2023-02-19T16:09:05;101488.13;;;8.18;89.35
21129;BME280;10722;51.910;8.352;2023-02-19T16:11:53;101483.19;;;8.23;89.32
21129;BME280;10722;51.910;8.352;2023-02-19T16:14:39;101495.69;;;8.14;89.59
21129;BME280;10722;51.910;8.352;2023-02-19T16:17:24;101490.34;;;7.88;89.56
21129;BME280;10722;51.910;8.352;2023-02-19T16:20:30;101511.22;;;7.52;90.92
21129;BME280;10722;51.910;8.352;2023-02-19T16:23:16;101543.94;;;7.55;92.79
21129;BME280;10722;51.910;8.352;2023-02-19T16:26:02;101548.19;;;7.54;93.39
21129;BME280;10722;51.910;8.352;2023-02-19T16:28:51;101562.88;;;7.36;94.18
21129;BME280;10722;51.910;8.352;2023-02-19T16:31:38;101575.25;;;7.25;95.29
21129;BME280;10722;51.910;8.352;2023-02-19T16:34:41;101582.56;;;7.16;95.31
21129;BME280;10722;51.910;8.352;2023-02-19T16:43:22;101614.31;;;6.79;99.88
21129;BME280;10722;51.910;8.352;2023-02-19T16:46:11;101631.66;;;6.65;100.00
21129;BME280;10722;51.910;8.352;2023-02-19T16:48:56;101636.81;;;6.65;100.00
21129;BME280;10722;51.910;8.352;2023-02-19T16:51:45;101646.72;;;6.58;100.00